sensor_id;sensor_type;location;lat;lon;timestamp;pressure;altitude;pressure_sealevel;temperature;humidity
76730;BME280;65653;53.106;18.046;2023-11-21T00:01:57;100269.11;;;0.11;100.00
76730;BME280;65653;53.106;18.046;2023-11-21T00:04:24;100269.53;;;0.12;100.00
76730;BME280;65653;53.106;18.046;2023-11-21T00:06:54;100277.30;;;0.10;100.00
76730;BME280;65653;53.106;18.046;2023-11-21T00:09:20;100276.81;;;0.10;100.00
76730;BME280;65653;53.106;18.046;2023-11-21T00:11:47;100276.44;;;0.08;100.00
76730;BME280;65653;53.106;18.046;2023-11-21T00:14:13;100282.19;;;0.07;100.00
76730;BME280;65653;53.106;18.046;2023-11-21T00:16:41;100283.96;;;0.05;100.00
76730;BME280;65653;53.106;18.046;2023-11-21T00:19:07;100293.26;;;0.05;100.00
76730;BME280;65653;53.106;18.046;2023-11-21T00:21:33;100298.41;;;0.06;100.00
76730;BME280;65653;53.106;18.046;2023-11-21T00:23:58;100301.27;;;0.07;100.00
76730;BME280;65653;53.106;18.046;2023-11-21T00:26:24;100302.63;;;0.06;100.00
76730;BME280;65653;53.106;18.046;2023-11-21T00:28:50;100297.70;;;0.06;100.00
76730;BME280;65653;53.106;18.046;2023-11-21T00:31:16;100301.96;;;0.07;100.00
76730;BME280;65653;53.106;18.046;2023-11-21T00:33:42;100301.90;;;0.08;100.00
76730;BME280;65653;53.106;18.046;2023-11-21T00:36:09;100301.06;;;0.07;100.00
76730;BME280;65653;53.106;18.046;2023-11-21T00:38:36;100302.50;;;0.09;100.00
76730;BME280;65653;53.106;18.046;2023-11-21T00:41:02;100304.45;;;0.09;100.00
76730;BME280;65653;53.106;18.046;2023-11-21T00:43:28;100310.25;;;0.07;100.00
76730;BME280;65653;53.106;18.046;2023-11-21T00:45:54;100311.02;;;0.05;100.00
76730;BME280;65653;53.106;18.046;2023-11-21T00:48:20;100312.58;;;0.04;100.00
76730;BME280;65653;53.106;18.046;2023-11-21T00:50:46;100319.18;;;0.05;100.00
76730;BME280;65653;53.106;18.046;2023-11-21T00:53:12;100324.39;;;0.06;100.00
76730;BME280;65653;53.106;18.046;2023-11-21T00:55:38;100327.77;;;0.05;100.00
76730;BME280;65653;53.106;18.046;2023-11-21T00:58:06;100328.94;;;0.04;100.00
76730;BME280;65653;53.106;18.046;2023-11-21T01:00:33;100327.83;;;-0.00;100.00
76730;BME280;65653;53.106;18.046;2023-11-21T01:02:59;100328.84;;;-0.01;100.00
76730;BME280;65653;53.106;18.046;2023-11-21T01:05:26;100328.60;;;-0.03;100.00
76730;BME280;65653;53.106;18.046;2023-11-21T01:07:52;100330.27;;;-0.05;100.00
76730;BME280;65653;53.106;18.046;2023-11-21T01:10:19;100332.77;;;-0.06;100.00
76730;BME280;65653;53.106;18.046;2023-11-21T01:12:45;100337.09;;;-0.07;100.00
76730;BME280;65653;53.106;18.046;2023-11-21T01:15:11;100341.25;;;-0.08;100.00
76730;BME280;65653;53.106;18.046;2023-11-21T01:17:38;100349.73;;;-0.11;100.00
76730;BME280;65653;53.106;18.046;2023-11-21T01:20:04;100351.07;;;-0.15;100.00
76730;BME280;65653;53.106;18.046;2023-11-21T01:22:36;100352.61;;;-0.16;100.00
76730;BME280;65653;53.106;18.046;2023-11-21T01:25:02;100355.59;;;-0.17;100.00
76730;BME280;65653;53.106;18.046;2023-11-21T01:27:30;100354.94;;;-0.16;100.00
76730;BME280;65653;53.106;18.046;2023-11-21T01:29:57;100357.56;;;-0.15;100.00
76730;BME280;65653;53.106;18.046;2023-11-21T01:32:22;100357.70;;;-0.14;100.00
76730;BME280;65653;53.106;18.046;2023-11-21T01:34:50;100359.28;;;-0.16;100.00
76730;BME280;65653;53.106;18.046;2023-11-21T01:37:15;100360.88;;;-0.17;100.00
76730;BME280;65653;53.106;18.046;2023-11-21T01:39:45;100359.35;;;-0.18;100.00
76730;BME280;65653;53.106;18.046;2023-11-21T01:42:12;100358.75;;;-0.20;100.00
76730;BME280;65653;53.106;18.046;2023-11-21T01:44:39;100359.77;;;-0.19;100.00
76730;BME280;65653;53.106;18.046;2023-11-21T01:47:06;100362.41;;;-0.18;100.00
76730;BME280;65653;53.106;18.046;2023-11-21T01:49:35;100364.85;;;-0.21;100.00
76730;BME280;65653;53.106;18.046;2023-11-21T01:52:02;100361.89;;;-0.22;100.00
76730;BME280;65653;53.106;18.046;2023-11-21T01:54:30;100361.33;;;-0.22;100.00
76730;BME280;65653;53.106;18.046;2023-11-21T01:56:58;100366.34;;;-0.23;100.00
76730;BME280;65653;53.106;18.046;2023-11-21T01:59:38;100369.77;;;-0.27;100.00
76730;BME280;65653;53.106;18.046;2023-11-21T02:02:05;100372.91;;;-0.27;100.00
76730;BME280;65653;53.106;18.046;2023-11-21T02:04:35;100372.42;;;-0.28;100.00
76730;BME280;65653;53.106;18.046;2023-11-21T02:07:05;100380.05;;;-0.28;100.00
76730;BME280;65653;53.106;18.046;2023-11-21T02:09:31;100378.95;;;-0.29;100.00
76730;BME280;65653;53.106;18.046;2023-11-21T02:12:00;100372.48;;;-0.30;100.00
76730;BME280;65653;53.106;18.046;2023-11-21T02:14:27;100378.92;;;-0.29;100.00
76730;BME280;65653;53.106;18.046;2023-11-21T02:16:54;100381.84;;;-0.28;100.00
76730;BME280;65653;53.106;18.046;2023-11-21T02:19:21;100382.57;;;-0.28;100.00
76730;BME280;65653;53.106;18.046;2023-11-21T02:21:57;100383.39;;;-0.27;100.00
76730;BME280;65653;53.106;18.046;2023-11-21T02:24:26;100388.09;;;-0.27;100.00
76730;BME280;65653;53.106;18.046;2023-11-21T02:26:53;100385.20;;;-0.28;100.00
76730;BME280;65653;53.106;18.046;2023-11-21T02:29:19;100384.88;;;-0.29;100.00
76730;BME280;65653;53.106;18.046;2023-11-21T02:31:49;100383.20;;;-0.30;100.00
76730;BME280;65653;53.106;18.046;2023-11-21T02:34:15;100384.52;;;-0.35;100.00
76730;BME280;65653;53.106;18.046;2023-11-21T02:36:45;100387.62;;;-0.39;100.00
76730;BME280;65653;53.106;18.046;2023-11-21T02:39:11;100393.89;;;-0.40;100.00
76730;BME280;65653;53.106;18.046;2023-11-21T02:41:37;100395.20;;;-0.42;100.00
76730;BME280;65653;53.106;18.046;2023-11-21T02:44:05;100396.78;;;-0.41;100.00
76730;BME280;65653;53.106;18.046;2023-11-21T02:46:34;100399.89;;;-0.40;100.00
76730;BME280;65653;53.106;18.046;2023-11-21T02:49:04;100403.77;;;-0.41;100.00
76730;BME280;65653;53.106;18.046;2023-11-21T02:51:36;100405.76;;;-0.43;100.00
76730;BME280;65653;53.106;18.046;2023-11-21T02:54:03;100411.66;;;-0.45;100.00
76730;BME280;65653;53.106;18.046;2023-11-21T02:56:32;100413.35;;;-0.52;100.00
76730;BME280;65653;53.106;18.046;2023-11-21T02:59:00;100412.29;;;-0.58;100.00
76730;BME280;65653;53.106;18.046;2023-11-21T03:01:26;100421.70;;;-0.60;100.00
76730;BME280;65653;53.106;18.046;2023-11-21T03:03:53;100424.08;;;-0.62;100.00
76730;BME280;65653;53.106;18.046;2023-11-21T03:06:20;100423.50;;;-0.61;100.00
76730;BME280;65653;53.106;18.046;2023-11-21T03:08:46;100428.59;;;-0.62;100.00
76730;BME280;65653;53.106;18.046;2023-11-21T03:11:13;100427.59;;;-0.61;100.00
76730;BME280;65653;53.106;18.046;2023-11-21T03:13:42;100431.52;;;-0.60;100.00
76730;BME280;65653;53.106;18.046;2023-11-21T03:16:09;100435.58;;;-0.61;100.00
76730;BME280;65653;53.106;18.046;2023-11-21T03:18:39;100441.54;;;-0.60;100.00
76730;BME280;65653;53.106;18.046;2023-11-21T03:21:06;100439.27;;;-0.59;100.00
76730;BME280;65653;53.106;18.046;2023-11-21T03:23:35;100443.16;;;-0.60;100.00
76730;BME280;65653;53.106;18.046;2023-11-21T03:26:02;100443.85;;;-0.62;100.00
76730;BME280;65653;53.106;18.046;2023-11-21T03:28:28;100443.48;;;-0.62;100.00
76730;BME280;65653;53.106;18.046;2023-11-21T03:30:54;100448.23;;;-0.62;100.00
76730;BME280;65653;53.106;18.046;2023-11-21T03:33:20;100450.43;;;-0.62;100.00
76730;BME280;65653;53.106;18.046;2023-11-21T03:35:46;100455.64;;;-0.62;100.00
76730;BME280;65653;53.106;18.046;2023-11-21T03:38:12;100450.95;;;-0.62;100.00
76730;BME280;65653;53.106;18.046;2023-11-21T03:40:38;100453.50;;;-0.64;100.00
76730;BME280;65653;53.106;18.046;2023-11-21T03:43:05;100450.59;;;-0.66;100.00
76730;BME280;65653;53.106;18.046;2023-11-21T03:45:32;100454.64;;;-0.67;100.00
76730;BME280;65653;53.106;18.046;2023-11-21T03:47:57;100451.37;;;-0.67;100.00
76730;BME280;65653;53.106;18.046;2023-11-21T03:50:23;100449.94;;;-0.67;100.00
76730;BME280;65653;53.106;18.046;2023-11-21T03:52:49;100449.73;;;-0.67;100.00
76730;BME280;65653;53.106;18.046;2023-11-21T03:55:15;100448.39;;;-0.68;100.00
76730;BME280;65653;53.106;18.046;2023-11-21T03:57:40;100447.42;;;-0.67;100.00
76730;BME280;65653;53.106;18.046;2023-11-21T04:00:07;100449.09;;;-0.65;100.00
76730;BME280;65653;53.106;18.046;2023-11-21T04:02:34;100449.20;;;-0.63;100.00
76730;BME280;65653;53.106;18.046;2023-11-21T04:05:00;100452.77;;;-0.61;100.00
76730;BME280;65653;53.106;18.046;2023-11-21T04:07:26;100454.04;;;-0.59;100.00
76730;BME280;65653;53.106;18.046;2023-11-21T04:09:52;100457.98;;;-0.56;100.00
76730;BME280;65653;53.106;18.046;2023-11-21T04:12:19;100459.10;;;-0.54;100.00
76730;BME280;65653;53.106;18.046;2023-11-21T04:14:45;100459.06;;;-0.54;100.00
76730;BME280;65653;53.106;18.046;2023-11-21T04:17:12;100461.52;;;-0.55;100.00
76730;BME280;65653;53.106;18.046;2023-11-21T04:19:38;100468.45;;;-0.59;100.00
76730;BME280;65653;53.106;18.046;2023-11-21T04:22:04;100471.58;;;-0.59;100.00
76730;BME280;65653;53.106;18.046;2023-11-21T04:24:29;100475.98;;;-0.62;100.00
76730;BME280;65653;53.106;18.046;2023-11-21T04:26:55;100474.66;;;-0.62;100.00
76730;BME280;65653;53.106;18.046;2023-11-21T04:29:21;100483.56;;;-0.60;100.00
76730;BME280;65653;53.106;18.046;2023-11-21T04:31:47;100488.91;;;-0.59;100.00
76730;BME280;65653;53.106;18.046;2023-11-21T04:34:15;100489.09;;;-0.59;100.00
76730;BME280;65653;53.106;18.046;2023-11-21T04:36:40;100491.08;;;-0.61;100.00
76730;BME280;65653;53.106;18.046;2023-11-21T04:39:06;100495.84;;;-0.61;100.00
76730;BME280;65653;53.106;18.046;2023-11-21T04:41:32;100497.56;;;-0.60;100.00
76730;BME280;65653;53.106;18.046;2023-11-21T04:43:58;100495.88;;;-0.60;100.00
76730;BME280;65653;53.106;18.046;2023-11-21T04:46:26;100496.38;;;-0.65;100.00
76730;BME280;65653;53.106;18.046;2023-11-21T04:48:52;100496.33;;;-0.69;100.00
76730;BME280;65653;53.106;18.046;2023-11-21T04:51:18;100502.18;;;-0.75;100.00
76730;BME280;65653;53.106;18.046;2023-11-21T04:53:43;100507.28;;;-0.78;100.00
76730;BME280;65653;53.106;18.046;2023-11-21T04:56:10;100519.65;;;-0.78;100.00
76730;BME280;65653;53.106;18.046;2023-11-21T04:58:36;100523.29;;;-0.78;100.00
76730;BME280;65653;53.106;18.046;2023-11-21T05:01:02;100528.77;;;-0.79;100.00
76730;BME280;65653;53.106;18.046;2023-11-21T05:03:28;100528.56;;;-0.79;100.00
76730;BME280;65653;53.106;18.046;2023-11-21T05:05:55;100535.61;;;-0.78;100.00
76730;BME280;65653;53.106;18.046;2023-11-21T05:08:21;100539.67;;;-0.79;100.00
76730;BME280;65653;53.106;18.046;2023-11-21T05:10:48;100544.55;;;-0.81;100.00
76730;BME280;65653;53.106;18.046;2023-11-21T05:13:15;100541.64;;;-0.85;100.00
76730;BME280;65653;53.106;18.046;2023-11-21T05:15:43;100539.02;;;-0.92;100.00
76730;BME280;65653;53.106;18.046;2023-11-21T05:18:10;100543.67;;;-0.97;100.00
76730;BME280;65653;53.106;18.046;2023-11-21T05:20:36;100544.15;;;-0.99;100.00
76730;BME280;65653;53.106;18.046;2023-11-21T05:23:02;100544.87;;;-0.99;100.00
76730;BME280;65653;53.106;18.046;2023-11-21T05:25:28;100545.16;;;-1.00;100.00
76730;BME280;65653;53.106;18.046;2023-11-21T05:27:54;100546.31;;;-1.02;100.00
76730;BME280;65653;53.106;18.046;2023-11-21T05:30:21;100545.55;;;-1.04;100.00
76730;BME280;65653;53.106;18.046;2023-11-21T05:32:47;100554.20;;;-1.03;100.00
76730;BME280;65653;53.106;18.046;2023-11-21T05:35:13;100557.50;;;-1.02;100.00
76730;BME280;65653;53.106;18.046;2023-11-21T05:37:42;100561.66;;;-1.00;100.00
76730;BME280;65653;53.106;18.046;2023-11-21T05:40:08;100569.71;;;-0.99;100.00
76730;BME280;65653;53.106;18.046;2023-11-21T05:42:35;100568.54;;;-0.98;100.00
76730;BME280;65653;53.106;18.046;2023-11-21T05:45:02;100572.23;;;-0.97;100.00
76730;BME280;65653;53.106;18.046;2023-11-21T05:47:42;100579.60;;;-0.98;100.00
76730;BME280;65653;53.106;18.046;2023-11-21T05:50:10;100582.39;;;-0.99;100.00
76730;BME280;65653;53.106;18.046;2023-11-21T05:52:38;100587.05;;;-0.98;100.00
76730;BME280;65653;53.106;18.046;2023-11-21T05:55:04;100586.91;;;-0.98;100.00
76730;BME280;65653;53.106;18.046;2023-11-21T05:57:43;100588.61;;;-0.99;100.00
76730;BME280;65653;53.106;18.046;2023-11-21T06:00:11;100590.58;;;-1.01;100.00
76730;BME280;65653;53.106;18.046;2023-11-21T06:02:52;100592.52;;;-1.02;100.00
76730;BME280;65653;53.106;18.046;2023-11-21T06:05:20;100598.50;;;-1.02;100.00
76730;BME280;65653;53.106;18.046;2023-11-21T06:07:53;100599.48;;;-1.01;100.00
76730;BME280;65653;53.106;18.046;2023-11-21T06:10:21;100606.68;;;-1.01;100.00
76730;BME280;65653;53.106;18.046;2023-11-21T06:12:51;100614.17;;;-1.01;100.00
76730;BME280;65653;53.106;18.046;2023-11-21T06:15:17;100622.90;;;-1.02;100.00
76730;BME280;65653;53.106;18.046;2023-11-21T06:17:45;100621.18;;;-1.03;100.00
76730;BME280;65653;53.106;18.046;2023-11-21T06:20:15;100624.40;;;-1.04;100.00
76730;BME280;65653;53.106;18.046;2023-11-21T06:22:46;100629.33;;;-1.07;100.00
76730;BME280;65653;53.106;18.046;2023-11-21T06:25:13;100637.24;;;-1.08;100.00
76730;BME280;65653;53.106;18.046;2023-11-21T06:27:44;100641.08;;;-1.08;100.00
76730;BME280;65653;53.106;18.046;2023-11-21T06:30:10;100646.98;;;-1.06;100.00
76730;BME280;65653;53.106;18.046;2023-11-21T06:32:39;100650.96;;;-1.04;100.00
76730;BME280;65653;53.106;18.046;2023-11-21T06:35:06;100655.55;;;-1.04;100.00
76730;BME280;65653;53.106;18.046;2023-11-21T06:37:33;100653.27;;;-1.05;100.00
76730;BME280;65653;53.106;18.046;2023-11-21T06:40:00;100658.09;;;-1.04;100.00
76730;BME280;65653;53.106;18.046;2023-11-21T06:42:27;100663.56;;;-1.05;100.00
76730;BME280;65653;53.106;18.046;2023-11-21T06:44:54;100663.67;;;-1.06;100.00
76730;BME280;65653;53.106;18.046;2023-11-21T06:47:23;100667.05;;;-1.05;100.00
76730;BME280;65653;53.106;18.046;2023-11-21T06:49:53;100673.08;;;-1.06;100.00
76730;BME280;65653;53.106;18.046;2023-11-21T06:52:19;100669.84;;;-1.08;100.00
76730;BME280;65653;53.106;18.046;2023-11-21T06:54:47;100676.94;;;-1.06;100.00
76730;BME280;65653;53.106;18.046;2023-11-21T06:57:14;100678.05;;;-1.05;100.00
76730;BME280;65653;53.106;18.046;2023-11-21T06:59:40;100682.00;;;-1.02;100.00
76730;BME280;65653;53.106;18.046;2023-11-21T07:02:06;100689.51;;;-1.01;100.00
76730;BME280;65653;53.106;18.046;2023-11-21T07:04:33;100694.52;;;-1.00;100.00
76730;BME280;65653;53.106;18.046;2023-11-21T07:06:59;100695.63;;;-1.01;99.76
76730;BME280;65653;53.106;18.046;2023-11-21T07:09:25;100698.60;;;-1.01;99.47
76730;BME280;65653;53.106;18.046;2023-11-21T07:11:52;100703.73;;;-1.00;99.17
76730;BME280;65653;53.106;18.046;2023-11-21T07:14:21;100703.21;;;-0.96;99.53
76730;BME280;65653;53.106;18.046;2023-11-21T07:16:47;100705.29;;;-0.95;99.05
76730;BME280;65653;53.106;18.046;2023-11-21T07:19:14;100707.24;;;-0.93;99.32
76730;BME280;65653;53.106;18.046;2023-11-21T07:21:40;100707.80;;;-0.91;99.32
76730;BME280;65653;53.106;18.046;2023-11-21T07:24:07;100705.29;;;-0.91;99.62
76730;BME280;65653;53.106;18.046;2023-11-21T07:26:34;100710.61;;;-0.92;99.43
76730;BME280;65653;53.106;18.046;2023-11-21T07:29:02;100721.42;;;-0.91;99.84
76730;BME280;65653;53.106;18.046;2023-11-21T07:31:29;100723.98;;;-0.89;100.00
76730;BME280;65653;53.106;18.046;2023-11-21T07:33:55;100726.77;;;-0.90;99.53
76730;BME280;65653;53.106;18.046;2023-11-21T07:36:24;100730.27;;;-0.91;98.68
76730;BME280;65653;53.106;18.046;2023-11-21T07:38:51;100738.38;;;-0.90;99.04
76730;BME280;65653;53.106;18.046;2023-11-21T07:41:20;100740.35;;;-0.90;98.93
76730;BME280;65653;53.106;18.046;2023-11-21T07:43:46;100744.02;;;-0.88;99.63
76730;BME280;65653;53.106;18.046;2023-11-21T07:46:13;100745.81;;;-0.86;99.20
76730;BME280;65653;53.106;18.046;2023-11-21T07:48:40;100748.36;;;-0.86;98.11
76730;BME280;65653;53.106;18.046;2023-11-21T07:51:08;100745.52;;;-0.87;97.54
76730;BME280;65653;53.106;18.046;2023-11-21T07:53:36;100742.52;;;-0.86;97.79
76730;BME280;65653;53.106;18.046;2023-11-21T07:56:04;100739.52;;;-0.82;97.28
76730;BME280;65653;53.106;18.046;2023-11-21T07:58:31;100736.39;;;-0.80;96.55
76730;BME280;65653;53.106;18.046;2023-11-21T08:01:00;100737.00;;;-0.78;95.31
76730;BME280;65653;53.106;18.046;2023-11-21T08:03:28;100736.18;;;-0.75;95.28
76730;BME280;65653;53.106;18.046;2023-11-21T08:05:58;100740.23;;;-0.67;95.80
76730;BME280;65653;53.106;18.046;2023-11-21T08:08:24;100745.11;;;-0.63;95.17
76730;BME280;65653;53.106;18.046;2023-11-21T08:10:51;100746.00;;;-0.57;95.85
76730;BME280;65653;53.106;18.046;2023-11-21T08:13:26;100748.79;;;-0.49;96.00
76730;BME280;65653;53.106;18.046;2023-11-21T08:15:56;100752.30;;;-0.44;95.55
76730;BME280;65653;53.106;18.046;2023-11-21T08:18:24;100750.06;;;-0.41;95.22
76730;BME280;65653;53.106;18.046;2023-11-21T08:20:50;100748.14;;;-0.38;94.21
76730;BME280;65653;53.106;18.046;2023-11-21T08:23:16;100753.00;;;-0.34;93.40
76730;BME280;65653;53.106;18.046;2023-11-21T08:25:46;100751.34;;;-0.33;92.91
76730;BME280;65653;53.106;18.046;2023-11-21T08:28:12;100754.02;;;-0.31;93.26
76730;BME280;65653;53.106;18.046;2023-11-21T08:30:41;100755.48;;;-0.29;93.71
76730;BME280;65653;53.106;18.046;2023-11-21T08:33:07;100757.82;;;-0.24;93.98
76730;BME280;65653;53.106;18.046;2023-11-21T08:35:42;100762.91;;;-0.19;94.04
76730;BME280;65653;53.106;18.046;2023-11-21T08:38:08;100759.54;;;-0.16;92.73
76730;BME280;65653;53.106;18.046;2023-11-21T08:40:35;100757.70;;;-0.10;92.76
76730;BME280;65653;53.106;18.046;2023-11-21T08:43:01;100758.58;;;-0.11;92.16
76730;BME280;65653;53.106;18.046;2023-11-21T08:45:30;100755.80;;;-0.06;91.31
76730;BME280;65653;53.106;18.046;2023-11-21T08:47:56;100762.17;;;0.04;91.01
76730;BME280;65653;53.106;18.046;2023-11-21T08:50:22;100763.73;;;0.19;91.67
76730;BME280;65653;53.106;18.046;2023-11-21T08:52:48;100762.89;;;0.27;90.62
76730;BME280;65653;53.106;18.046;2023-11-21T08:55:14;100761.58;;;0.46;90.02
76730;BME280;65653;53.106;18.046;2023-11-21T08:57:44;100770.29;;;0.57;87.50
76730;BME280;65653;53.106;18.046;2023-11-21T09:00:11;100771.37;;;0.63;87.93
76730;BME280;65653;53.106;18.046;2023-11-21T09:02:38;100770.40;;;0.68;88.17
76730;BME280;65653;53.106;18.046;2023-11-21T09:05:05;100776.20;;;0.66;86.09
76730;BME280;65653;53.106;18.046;2023-11-21T09:07:31;100772.92;;;0.68;85.23
76730;BME280;65653;53.106;18.046;2023-11-21T09:09:57;100776.59;;;0.76;84.58
76730;BME280;65653;53.106;18.046;2023-11-21T09:12:23;100782.77;;;0.90;84.03
76730;BME280;65653;53.106;18.046;2023-11-21T09:14:50;100786.63;;;0.89;83.84
76730;BME280;65653;53.106;18.046;2023-11-21T09:17:16;100789.59;;;0.86;83.59
76730;BME280;65653;53.106;18.046;2023-11-21T09:19:42;100792.27;;;0.83;83.83
76730;BME280;65653;53.106;18.046;2023-11-21T09:22:16;100793.68;;;0.95;85.04
76730;BME280;65653;53.106;18.046;2023-11-21T09:24:42;100787.26;;;1.02;84.59
76730;BME280;65653;53.106;18.046;2023-11-21T09:27:08;100790.59;;;1.31;87.06
76730;BME280;65653;53.106;18.046;2023-11-21T09:29:37;100790.61;;;1.41;84.20
76730;BME280;65653;53.106;18.046;2023-11-21T09:32:06;100793.13;;;1.28;83.37
76730;BME280;65653;53.106;18.046;2023-11-21T09:34:34;100797.30;;;1.28;85.08
76730;BME280;65653;53.106;18.046;2023-11-21T09:37:04;100809.69;;;1.18;83.80
76730;BME280;65653;53.106;18.046;2023-11-21T09:39:32;100814.45;;;1.08;83.14
76730;BME280;65653;53.106;18.046;2023-11-21T09:42:10;100814.55;;;0.86;83.14
76730;BME280;65653;53.106;18.046;2023-11-21T09:45:12;100815.59;;;0.81;84.22
76730;BME280;65653;53.106;18.046;2023-11-21T09:47:42;100822.85;;;0.79;86.00
76730;BME280;65653;53.106;18.046;2023-11-21T09:50:09;100821.46;;;0.74;85.50
76730;BME280;65653;53.106;18.046;2023-11-21T09:52:48;100817.94;;;0.67;84.84
76730;BME280;65653;53.106;18.046;2023-11-21T09:55:17;100823.09;;;0.62;85.55
76730;BME280;65653;53.106;18.046;2023-11-21T09:57:44;100823.80;;;0.68;85.68
76730;BME280;65653;53.106;18.046;2023-11-21T10:00:11;100822.40;;;0.68;84.61
76730;BME280;65653;53.106;18.046;2023-11-21T10:02:38;100819.86;;;0.66;83.42
76730;BME280;65653;53.106;18.046;2023-11-21T10:05:06;100822.55;;;0.74;84.47
76730;BME280;65653;53.106;18.046;2023-11-21T10:07:35;100820.41;;;0.78;83.67
76730;BME280;65653;53.106;18.046;2023-11-21T10:10:03;100819.75;;;0.83;83.29
76730;BME280;65653;53.106;18.046;2023-11-21T10:12:31;100822.84;;;0.91;84.44
76730;BME280;65653;53.106;18.046;2023-11-21T10:14:59;100819.90;;;1.02;86.19
76730;BME280;65653;53.106;18.046;2023-11-21T10:17:28;100817.92;;;1.10;84.69
76730;BME280;65653;53.106;18.046;2023-11-21T10:19:56;100821.37;;;1.06;82.73
76730;BME280;65653;53.106;18.046;2023-11-21T10:22:23;100827.00;;;1.04;83.66
76730;BME280;65653;53.106;18.046;2023-11-21T10:24:50;100832.33;;;1.02;83.77
76730;BME280;65653;53.106;18.046;2023-11-21T10:27:17;100837.41;;;0.88;82.79
76730;BME280;65653;53.106;18.046;2023-11-21T10:29:43;100833.20;;;0.65;82.47
76730;BME280;65653;53.106;18.046;2023-11-21T10:32:08;100836.25;;;0.57;84.17
76730;BME280;65653;53.106;18.046;2023-11-21T10:34:35;100837.97;;;0.52;84.65
76730;BME280;65653;53.106;18.046;2023-11-21T10:37:11;100845.77;;;0.51;84.64
76730;BME280;65653;53.106;18.046;2023-11-21T10:39:38;100847.83;;;0.42;83.98
76730;BME280;65653;53.106;18.046;2023-11-21T10:42:04;100852.55;;;0.40;85.37
76730;BME280;65653;53.106;18.046;2023-11-21T10:44:32;100854.94;;;0.42;86.46
76730;BME280;65653;53.106;18.046;2023-11-21T10:47:00;100855.07;;;0.38;85.31
76730;BME280;65653;53.106;18.046;2023-11-21T10:49:27;100857.59;;;0.31;84.39
76730;BME280;65653;53.106;18.046;2023-11-21T10:51:53;100855.13;;;0.28;84.10
76730;BME280;65653;53.106;18.046;2023-11-21T10:54:20;100859.77;;;0.27;83.84
76730;BME280;65653;53.106;18.046;2023-11-21T10:56:48;100859.13;;;0.28;83.55
76730;BME280;65653;53.106;18.046;2023-11-21T10:59:17;100858.84;;;0.29;83.91
76730;BME280;65653;53.106;18.046;2023-11-21T11:01:45;100859.98;;;0.32;84.32
76730;BME280;65653;53.106;18.046;2023-11-21T11:04:15;100860.38;;;0.38;84.83
76730;BME280;65653;53.106;18.046;2023-11-21T11:06:54;100861.50;;;0.45;85.00
76730;BME280;65653;53.106;18.046;2023-11-21T11:09:20;100858.16;;;0.44;83.16
76730;BME280;65653;53.106;18.046;2023-11-21T11:11:46;100859.56;;;0.45;83.03
76730;BME280;65653;53.106;18.046;2023-11-21T11:14:13;100864.69;;;0.42;82.86
76730;BME280;65653;53.106;18.046;2023-11-21T11:16:41;100868.34;;;0.44;83.19
76730;BME280;65653;53.106;18.046;2023-11-21T11:19:07;100869.50;;;0.45;83.16
76730;BME280;65653;53.106;18.046;2023-11-21T11:21:51;100874.78;;;0.47;83.96
76730;BME280;65653;53.106;18.046;2023-11-21T11:38:37;100897.62;;;0.52;84.08
76730;BME280;65653;53.106;18.046;2023-11-21T11:41:04;100897.92;;;0.53;83.34
76730;BME280;65653;53.106;18.046;2023-11-21T11:43:31;100904.02;;;0.49;82.33
76730;BME280;65653;53.106;18.046;2023-11-21T11:46:11;100915.61;;;0.46;83.45
76730;BME280;65653;53.106;18.046;2023-11-21T11:48:40;100917.43;;;0.48;84.59
76730;BME280;65653;53.106;18.046;2023-11-21T11:51:11;100920.92;;;0.51;84.95
76730;BME280;65653;53.106;18.046;2023-11-21T11:53:41;100920.95;;;0.53;84.69
76730;BME280;65653;53.106;18.046;2023-11-21T11:56:27;100927.68;;;0.51;84.88
76730;BME280;65653;53.106;18.046;2023-11-21T11:58:55;100930.23;;;0.51;84.41
76730;BME280;65653;53.106;18.046;2023-11-21T12:01:22;100925.75;;;0.52;84.23
76730;BME280;65653;53.106;18.046;2023-11-21T12:06:52;100930.48;;;0.56;83.62
76730;BME280;65653;53.106;18.046;2023-11-21T12:09:23;100928.05;;;0.55;83.23
76730;BME280;65653;53.106;18.046;2023-11-21T12:11:50;100928.33;;;0.53;82.93
76730;BME280;65653;53.106;18.046;2023-11-21T12:14:16;100933.17;;;0.52;83.33
76730;BME280;65653;53.106;18.046;2023-11-21T12:16:42;100931.98;;;0.52;84.26
76730;BME280;65653;53.106;18.046;2023-11-21T12:19:09;100933.41;;;0.52;85.37
76730;BME280;65653;53.106;18.046;2023-11-21T12:21:36;100936.69;;;0.50;84.44
76730;BME280;65653;53.106;18.046;2023-11-21T12:24:03;100939.66;;;0.49;85.18
76730;BME280;65653;53.106;18.046;2023-11-21T12:26:30;100934.21;;;0.45;84.39
76730;BME280;65653;53.106;18.046;2023-11-21T12:28:56;100934.10;;;0.42;84.65
76730;BME280;65653;53.106;18.046;2023-11-21T12:31:22;100937.64;;;0.41;85.04
76730;BME280;65653;53.106;18.046;2023-11-21T12:33:48;100936.45;;;0.42;84.44
76730;BME280;65653;53.106;18.046;2023-11-21T12:36:15;100930.87;;;0.40;83.60
76730;BME280;65653;53.106;18.046;2023-11-21T12:38:42;100938.25;;;0.36;83.88
76730;BME280;65653;53.106;18.046;2023-11-21T12:41:11;100943.55;;;0.36;85.10
76730;BME280;65653;53.106;18.046;2023-11-21T12:43:37;100939.43;;;0.37;85.92
76730;BME280;65653;53.106;18.046;2023-11-21T12:46:06;100936.73;;;0.41;85.43
76730;BME280;65653;53.106;18.046;2023-11-21T12:48:32;100938.66;;;0.48;85.92
76730;BME280;65653;53.106;18.046;2023-11-21T12:50:58;100940.95;;;0.51;85.47
76730;BME280;65653;53.106;18.046;2023-11-21T12:53:26;100947.59;;;0.50;85.48
76730;BME280;65653;53.106;18.046;2023-11-21T12:55:55;100959.72;;;0.50;84.91
76730;BME280;65653;53.106;18.046;2023-11-21T12:58:24;100964.42;;;0.44;83.45